Time;durP1;ratioP1;P1;durP2;ratioP2;P2;SDS_P1;SDS_P2;PMS_P1;PMS_P2;Temp;Humidity;BMP_temperature;BMP_pressure;BME280_temperature;BME280_humidity;BME280_pressure;Samples;Min_cycle;Max_cycle;Signal;HPM_P1;HPM_P2
2022/05/19 00:02:10;;;;;;;19.93;10.30;;;19.20;99.90;;;;;;5005756;28;20193;-83
2022/05/19 00:04:36;;;;;;;18.43;10.83;;;19.10;99.90;;;;;;5000972;28;20177;-82
2022/05/19 00:07:03;;;;;;;17.30;10.67;;;19.00;99.90;;;;;;5007680;28;20185;-84
2022/05/19 00:09:29;;;;;;;15.10;9.97;;;19.30;99.90;;;;;;5006891;28;20308;-82
2022/05/19 00:11:56;;;;;;;17.70;10.77;;;19.10;99.90;;;;;;5008883;28;20221;-83
2022/05/19 00:14:22;;;;;;;14.67;10.90;;;18.90;99.90;;;;;;5002477;28;20170;-83
2022/05/19 00:16:48;;;;;;;16.90;9.93;;;19.00;99.90;;;;;;5006076;28;20548;-82
2022/05/19 00:19:15;;;;;;;17.67;11.00;;;19.10;99.90;;;;;;5005453;28;20217;-83
2022/05/19 00:21:41;;;;;;;21.37;11.57;;;19.10;99.90;;;;;;5003433;28;20406;-83
2022/05/19 00:24:08;;;;;;;15.70;9.77;;;19.00;99.90;;;;;;5002981;28;20171;-83
2022/05/19 00:26:34;;;;;;;14.90;9.90;;;19.00;99.90;;;;;;5004123;28;20167;-82
2022/05/19 00:29:00;;;;;;;16.03;10.57;;;19.10;99.90;;;;;;5003199;28;20225;-83
2022/05/19 00:31:26;;;;;;;14.80;10.17;;;19.10;99.90;;;;;;5005019;28;20667;-84
2022/05/19 00:33:52;;;;;;;16.63;9.97;;;19.00;99.90;;;;;;5004132;28;20169;-81
2022/05/19 00:36:20;;;;;;;14.07;9.77;;;19.00;99.90;;;;;;5001289;28;20581;-83
2022/05/19 00:38:46;;;;;;;14.67;10.27;;;18.90;99.90;;;;;;5006326;28;20213;-84
2022/05/19 00:41:13;;;;;;;13.47;9.37;;;18.70;99.90;;;;;;5009269;28;20202;-83
2022/05/19 00:43:42;;;;;;;14.80;9.77;;;18.90;99.90;;;;;;5004249;28;20167;-83
2022/05/19 00:46:18;;;;;;;12.00;9.60;;;19.00;99.90;;;;;;5008291;28;20178;-81
2022/05/19 00:48:49;;;;;;;14.97;10.03;;;19.00;99.90;;;;;;5011216;28;20661;-82
2022/05/19 00:51:17;;;;;;;16.00;9.77;;;18.90;99.90;;;;;;5008237;28;20284;-82
2022/05/19 00:53:51;;;;;;;11.73;8.63;;;18.90;99.90;;;;;;5003538;28;20190;-82
2022/05/19 00:56:46;;;;;;;13.70;10.07;;;18.80;99.90;;;;;;5012605;28;20174;-82
2022/05/19 00:59:19;;;;;;;15.70;9.23;;;18.70;99.90;;;;;;5004067;28;20701;-82
2022/05/19 01:01:45;;;;;;;14.23;8.53;;;18.80;99.90;;;;;;5008830;28;20186;-83
2022/05/19 01:04:24;;;;;;;11.20;9.10;;;18.80;99.90;;;;;;5008648;28;20181;-81
2022/05/19 01:06:54;;;;;;;12.40;7.30;;;18.70;99.90;;;;;;5008372;28;20574;-82
2022/05/19 01:09:19;;;;;;;12.50;8.70;;;18.70;99.90;;;;;;5011553;28;20181;-82
2022/05/19 01:11:45;;;;;;;14.93;8.30;;;18.70;99.90;;;;;;5008005;28;20186;-82
2022/05/19 01:14:12;;;;;;;12.70;9.30;;;18.80;99.90;;;;;;5007759;28;20167;-81
2022/05/19 01:16:38;;;;;;;12.30;7.33;;;18.70;99.90;;;;;;5009700;28;20527;-82
2022/05/19 01:19:17;;;;;;;12.60;7.60;;;18.60;99.90;;;;;;5008980;28;20182;-82
2022/05/19 01:21:43;;;;;;;8.30;6.70;;;18.60;99.90;;;;;;5006243;28;20601;-82
2022/05/19 01:24:39;;;;;;;10.83;7.50;;;18.70;99.90;;;;;;5012308;28;20174;-81
2022/05/19 01:27:04;;;;;;;9.50;6.73;;;18.50;99.90;;;;;;5010727;28;20253;-83
2022/05/19 01:29:30;;;;;;;9.93;7.23;;;18.60;99.90;;;;;;5028007;28;20203;-83
2022/05/19 01:32:02;;;;;;;9.17;7.20;;;18.70;99.90;;;;;;5011661;28;20285;-82
2022/05/19 01:34:31;;;;;;;11.73;6.93;;;18.70;99.90;;;;;;5008634;28;20650;-82
2022/05/19 01:36:57;;;;;;;7.77;6.43;;;18.60;99.90;;;;;;5008864;28;20162;-82
2022/05/19 01:39:26;;;;;;;9.73;6.60;;;18.50;99.90;;;;;;5009273;28;20262;-81
2022/05/19 01:42:29;;;;;;;7.93;6.30;;;18.50;99.90;;;;;;5008560;28;20685;-82
2022/05/19 01:44:58;;;;;;;8.47;6.37;;;18.40;99.90;;;;;;5001842;28;20554;-84
2022/05/19 01:47:36;;;;;;;10.60;6.47;;;18.20;99.90;;;;;;5004976;28;20705;-83
2022/05/19 01:50:19;;;;;;;7.33;6.00;;;18.20;99.90;;;;;;5006339;28;20736;-82
2022/05/19 01:52:50;;;;;;;7.33;6.20;;;18.10;99.90;;;;;;5007287;28;20194;-83
2022/05/19 01:55:32;;;;;;;9.23;6.00;;;18.20;99.90;;;;;;5005282;28;20593;-82
2022/05/19 01:58:28;;;;;;;8.60;6.57;;;18.40;99.90;;;;;;4999826;28;20793;-82
2022/05/19 02:00:58;;;;;;;10.93;5.90;;;18.50;99.90;;;;;;4966761;28;20220;-82
2022/05/19 02:03:36;;;;;;;9.17;6.47;;;18.30;99.90;;;;;;5003419;28;20174;-82
2022/05/19 02:06:04;;;;;;;8.30;5.70;;;18.20;99.90;;;;;;5002382;28;20195;-82
2022/05/19 02:08:45;;;;;;;9.60;6.10;;;18.10;99.90;;;;;;5003759;28;20166;-83
2022/05/19 02:11:20;;;;;;;16.03;6.80;;;18.00;99.90;;;;;;5006284;28;20224;-83
2022/05/19 02:13:45;;;;;;;10.57;6.67;;;18.10;99.90;;;;;;5010772;28;20658;-83
2022/05/19 02:16:15;;;;;;;9.03;6.40;;;18.00;99.90;;;;;;5003812;28;20270;-82
2022/05/19 02:18:42;;;;;;;12.10;6.93;;;18.20;99.90;;;;;;5005514;28;20175;-82
2022/05/19 02:21:08;;;;;;;8.20;6.03;;;17.90;99.90;;;;;;5004266;28;20199;-84
2022/05/19 02:23:35;;;;;;;7.87;6.60;;;17.90;99.90;;;;;;5005205;28;20181;-82
2022/05/19 02:26:01;;;;;;;10.70;6.93;;;17.90;99.90;;;;;;5000175;28;20212;-83
2022/05/19 02:28:32;;;;;;;8.90;6.13;;;17.90;99.90;;;;;;5006770;28;20228;-83
2022/05/19 02:30:58;;;;;;;10.63;6.33;;;18.00;99.90;;;;;;5007329;28;20240;-84
2022/05/19 02:33:25;;;;;;;8.83;6.33;;;17.90;99.90;;;;;;5008106;28;20181;-83
2022/05/19 02:35:51;;;;;;;9.80;6.47;;;18.00;99.90;;;;;;5004308;28;20665;-83
2022/05/19 02:38:18;;;;;;;8.47;6.33;;;18.00;99.90;;;;;;5006080;28;20257;-82
2022/05/19 02:40:44;;;;;;;8.37;6.53;;;17.80;99.90;;;;;;5012564;28;20236;-82
2022/05/19 02:43:12;;;;;;;8.63;6.73;;;17.70;99.90;;;;;;5011520;28;20659;-83
2022/05/19 02:45:38;;;;;;;14.90;6.40;;;17.70;99.90;;;;;;5008450;28;20163;-83
2022/05/19 02:48:05;;;;;;;9.40;6.83;;;17.80;99.90;;;;;;5005878;28;20166;-83
2022/05/19 02:50:31;;;;;;;14.00;6.83;;;17.80;99.90;;;;;;4999677;28;20285;-83
2022/05/19 02:52:57;;;;;;;8.63;6.63;;;17.60;99.90;;;;;;5011779;28;20189;-82
2022/05/19 02:55:23;;;;;;;8.57;6.30;;;17.70;99.90;;;;;;5004962;28;20193;-83
2022/05/19 02:57:50;;;;;;;8.17;6.40;;;17.70;99.90;;;;;;5009850;28;20183;-84
2022/05/19 03:00:20;;;;;;;7.87;6.70;;;17.60;99.90;;;;;;5006765;28;20332;-82
2022/05/19 03:02:46;;;;;;;7.53;6.00;;;17.60;99.90;;;;;;5012530;28;20166;-83
2022/05/19 03:05:15;;;;;;;8.27;6.50;;;17.50;99.90;;;;;;5008051;28;20174;-82
2022/05/19 03:07:41;;;;;;;9.03;6.13;;;17.30;99.90;;;;;;5004121;28;20166;-83
2022/05/19 03:10:07;;;;;;;11.57;6.37;;;17.50;99.90;;;;;;5009317;28;20559;-83
2022/05/19 03:12:33;;;;;;;6.97;5.77;;;17.60;99.90;;;;;;5011180;28;20169;-83
2022/05/19 03:14:59;;;;;;;12.10;5.80;;;17.50;99.90;;;;;;5010342;28;20224;-83
2022/05/19 03:17:25;;;;;;;11.57;6.30;;;17.40;99.90;;;;;;5009486;28;20573;-82
2022/05/19 03:19:55;;;;;;;8.33;6.23;;;17.50;99.90;;;;;;5006216;28;20198;-82
2022/05/19 03:22:22;;;;;;;12.03;6.77;;;17.40;99.90;;;;;;5005943;28;20288;-82
2022/05/19 03:24:47;;;;;;;11.13;6.37;;;17.40;99.90;;;;;;5010110;28;20260;-82
2022/05/19 03:27:13;;;;;;;10.93;6.43;;;17.40;99.90;;;;;;5007154;28;20198;-84
2022/05/19 03:29:39;;;;;;;12.63;6.27;;;17.40;99.90;;;;;;5005904;28;20249;-82
2022/05/19 03:32:05;;;;;;;17.20;5.93;;;17.40;99.90;;;;;;5006222;28;20187;-83
2022/05/19 03:34:31;;;;;;;7.60;6.17;;;17.50;99.90;;;;;;5004062;28;20174;-83
2022/05/19 03:36:56;;;;;;;7.27;6.07;;;17.30;99.90;;;;;;5006264;28;20277;-83
2022/05/19 03:39:22;;;;;;;9.33;6.20;;;17.30;99.90;;;;;;5013519;28;20170;-83
2022/05/19 03:41:48;;;;;;;7.73;6.20;;;17.30;99.90;;;;;;5010430;28;20714;-83
2022/05/19 03:44:14;;;;;;;10.60;6.23;;;17.30;99.90;;;;;;5004422;28;20167;-84
2022/05/19 03:46:39;;;;;;;10.87;6.50;;;17.30;99.90;;;;;;5003809;28;20174;-83
2022/05/19 03:49:05;;;;;;;8.30;6.53;;;17.10;99.90;;;;;;5003900;28;20554;-83
2022/05/19 03:51:33;;;;;;;7.87;6.03;;;17.10;99.90;;;;;;5006235;28;20560;-83
2022/05/19 03:53:59;;;;;;;10.07;6.10;;;17.20;99.90;;;;;;4994508;28;20193;-83
2022/05/19 03:56:25;;;;;;;13.07;6.47;;;17.10;99.90;;;;;;5005709;28;20217;-82
2022/05/19 03:58:52;;;;;;;13.77;6.53;;;17.10;99.90;;;;;;5005855;28;20216;-83
2022/05/19 04:01:19;;;;;;;13.03;6.70;;;17.10;99.90;;;;;;5008480;28;20686;-82
2022/05/19 04:03:45;;;;;;;10.63;7.20;;;17.10;99.90;;;;;;5006686;28;20647;-82
2022/05/19 04:06:11;;;;;;;9.10;7.03;;;17.20;99.90;;;;;;5003716;28;20174;-82
2022/05/19 04:08:37;;;;;;;10.23;7.00;;;17.20;99.90;;;;;;5014133;28;20654;-82
2022/05/19 04:11:03;;;;;;;9.50;7.00;;;17.10;99.90;;;;;;5001519;28;20212;-82
2022/05/19 04:13:29;;;;;;;10.10;7.07;;;17.00;99.90;;;;;;5008351;28;20182;-82
2022/05/19 04:15:55;;;;;;;11.07;6.93;;;17.20;99.90;;;;;;5001237;28;20237;-82
2022/05/19 04:18:21;;;;;;;9.80;6.73;;;17.20;99.90;;;;;;5001277;28;20224;-82
2022/05/19 04:20:46;;;;;;;9.87;6.50;;;17.20;99.90;;;;;;5004439;28;20202;-82
2022/05/19 04:23:12;;;;;;;8.97;6.57;;;17.20;99.90;;;;;;5003567;28;20179;-82
2022/05/19 04:25:39;;;;;;;12.77;7.07;;;17.30;99.90;;;;;;5005146;28;20173;-82
2022/05/19 04:28:05;;;;;;;11.07;6.83;;;17.50;99.90;;;;;;5004307;28;20197;-83
2022/05/19 04:30:31;;;;;;;8.43;6.60;;;17.30;99.90;;;;;;4995951;28;20847;-82
2022/05/19 04:32:57;;;;;;;6.87;6.17;;;17.30;99.90;;;;;;5008422;28;20182;-82
2022/05/19 04:35:22;;;;;;;11.73;6.87;;;17.50;99.90;;;;;;5002972;28;20570;-82
2022/05/19 04:37:48;;;;;;;11.20;6.77;;;17.20;99.90;;;;;;5002530;28;20639;-83
2022/05/19 04:40:16;;;;;;;11.47;6.77;;;17.40;99.90;;;;;;5009532;28;20285;-82
2022/05/19 04:42:42;;;;;;;8.63;6.53;;;17.50;99.90;;;;;;5006699;28;20170;-82
2022/05/19 04:45:10;;;;;;;8.17;6.70;;;17.50;99.90;;;;;;5007143;28;20254;-83
2022/05/19 04:47:36;;;;;;;16.17;6.63;;;17.50;99.90;;;;;;5006056;28;20175;-82
2022/05/19 04:50:02;;;;;;;9.10;6.87;;;17.80;99.90;;;;;;5002366;28;20614;-85
2022/05/19 04:52:27;;;;;;;8.67;6.63;;;17.70;99.90;;;;;;5007056;28;20285;-82
2022/05/19 04:54:53;;;;;;;9.30;5.90;;;17.70;99.90;;;;;;5010993;28;20198;-84
2022/05/19 04:57:19;;;;;;;10.23;6.43;;;17.90;99.90;;;;;;5009651;28;20178;-83
2022/05/19 04:59:45;;;;;;;11.50;6.00;;;18.10;99.90;;;;;;5010496;28;20280;-82
2022/05/19 05:02:11;;;;;;;13.00;6.50;;;18.20;99.90;;;;;;5006144;28;20174;-83
2022/05/19 05:04:38;;;;;;;10.30;6.20;;;18.10;99.90;;;;;;5007959;28;20171;-82
2022/05/19 05:07:04;;;;;;;12.67;6.23;;;18.20;99.90;;;;;;5011583;28;20229;-83
2022/05/19 05:09:30;;;;;;;11.93;6.17;;;18.30;99.90;;;;;;5005832;28;20166;-84
2022/05/19 05:11:56;;;;;;;20.13;6.70;;;18.50;99.90;;;;;;5005174;28;20201;-82
2022/05/19 05:14:22;;;;;;;12.53;6.57;;;18.50;99.90;;;;;;5005833;28;20171;-82
2022/05/19 05:16:49;;;;;;;20.00;6.00;;;18.60;99.90;;;;;;5004997;28;20509;-84
2022/05/19 05:19:19;;;;;;;17.00;6.30;;;18.80;99.90;;;;;;5005529;28;20693;-82
2022/05/19 05:21:45;;;;;;;11.73;5.83;;;19.10;99.90;;;;;;5005615;28;20202;-83
2022/05/19 05:24:11;;;;;;;12.80;5.60;;;19.30;99.90;;;;;;5017642;28;20174;-82
2022/05/19 05:26:37;;;;;;;10.73;6.00;;;19.40;99.90;;;;;;5006306;28;20193;-83
2022/05/19 05:29:02;;;;;;;11.33;5.50;;;19.50;99.90;;;;;;5003717;28;20239;-83
2022/05/19 05:31:28;;;;;;;20.58;6.13;;;19.60;99.90;;;;;;5013425;28;20205;-82
2022/05/19 05:33:54;;;;;;;11.82;5.40;;;19.80;99.90;;;;;;5010084;28;20180;-82
2022/05/19 05:36:20;;;;;;;11.73;6.05;;;19.90;99.90;;;;;;5002716;28;20229;-83
2022/05/19 05:38:46;;;;;;;8.70;5.47;;;19.80;99.90;;;;;;5008268;28;20178;-83
2022/05/19 05:41:13;;;;;;;13.73;5.60;;;19.90;99.90;;;;;;5005561;28;20210;-83
2022/05/19 05:43:40;;;;;;;10.88;5.35;;;20.00;99.90;;;;;;5010521;28;20166;-83
2022/05/19 05:46:09;;;;;;;9.82;4.75;;;20.10;99.90;;;;;;5011076;28;20170;-82
2022/05/19 05:48:36;;;;;;;8.85;5.18;;;20.10;99.90;;;;;;5015431;28;20193;-83
2022/05/19 05:51:08;;;;;;;6.85;4.63;;;20.20;99.90;;;;;;5007821;28;20190;-83
2022/05/19 05:53:36;;;;;;;7.63;4.55;;;20.30;99.90;;;;;;5004348;28;20210;-83
2022/05/19 05:56:02;;;;;;;9.57;4.88;;;20.30;99.90;;;;;;5005569;28;20174;-83
2022/05/19 05:58:29;;;;;;;20.25;4.53;;;20.60;99.90;;;;;;5004572;28;20178;-83
2022/05/19 06:00:54;;;;;;;10.40;5.15;;;20.70;99.90;;;;;;5023837;28;20206;-83
2022/05/19 06:03:20;;;;;;;5.40;4.43;;;20.70;99.90;;;;;;5005256;28;20645;-84
2022/05/19 06:05:46;;;;;;;12.75;4.03;;;21.00;99.90;;;;;;5007145;28;20828;-83
2022/05/19 06:08:12;;;;;;;5.45;4.20;;;21.40;99.90;;;;;;5008913;28;20538;-84
2022/05/19 06:10:38;;;;;;;7.03;3.72;;;21.70;99.90;;;;;;5001802;28;20193;-85
2022/05/19 06:13:04;;;;;;;8.27;4.05;;;21.90;99.90;;;;;;5009116;28;20177;-84
2022/05/19 06:15:30;;;;;;;7.40;4.10;;;22.10;99.90;;;;;;5007112;28;20523;-84
2022/05/19 06:17:57;;;;;;;7.25;4.00;;;22.20;99.90;;;;;;5006070;28;20225;-84
2022/05/19 06:20:23;;;;;;;6.47;4.40;;;22.00;99.90;;;;;;5009358;28;20198;-84
2022/05/19 06:22:49;;;;;;;5.03;3.65;;;22.00;99.90;;;;;;5006860;28;20174;-81
2022/05/19 06:25:18;;;;;;;7.30;3.65;;;21.90;99.90;;;;;;5010959;28;20228;-84
2022/05/19 06:27:45;;;;;;;8.75;3.90;;;21.80;99.90;;;;;;5010897;28;20190;-83
2022/05/19 06:30:12;;;;;;;9.07;3.97;;;21.70;99.90;;;;;;5008850;28;20190;-83
2022/05/19 06:32:43;;;;;;;12.10;4.30;;;21.90;99.90;;;;;;5004190;28;20173;-84
2022/05/19 06:35:11;;;;;;;9.00;3.50;;;22.10;99.90;;;;;;5015295;28;20225;-84
2022/05/19 06:37:37;;;;;;;8.00;3.90;;;22.80;99.90;;;;;;5017475;28;20174;-83
2022/05/19 06:40:04;;;;;;;7.93;4.13;;;23.20;99.90;;;;;;5018941;28;20549;-81
2022/05/19 06:42:30;;;;;;;10.63;4.50;;;23.30;99.90;;;;;;5017800;28;20224;-81
2022/05/19 06:44:56;;;;;;;6.35;3.50;;;23.40;99.90;;;;;;5020445;28;20174;-83
2022/05/19 06:47:22;;;;;;;5.72;3.65;;;23.80;99.90;;;;;;5019199;28;20181;-83
2022/05/19 06:49:55;;;;;;;56.60;5.63;;;24.00;99.90;;;;;;5021738;28;20182;-84
2022/05/19 06:52:29;;;;;;;7.60;3.42;;;24.30;99.90;;;;;;5019485;28;20185;-83
2022/05/19 06:54:58;;;;;;;7.57;3.78;;;24.80;99.90;;;;;;5020606;28;20169;-83
2022/05/19 06:57:25;;;;;;;6.13;3.67;;;24.60;99.90;;;;;;5021529;28;20189;-81
2022/05/19 06:59:51;;;;;;;6.65;3.40;;;24.90;99.90;;;;;;5020923;28;20197;-81
2022/05/19 07:02:19;;;;;;;5.55;3.60;;;25.20;99.90;;;;;;5019852;28;20182;-81
2022/05/19 07:04:45;;;;;;;7.72;3.65;;;25.30;99.70;;;;;;5022127;28;20627;-83
2022/05/19 07:07:11;;;;;;;7.88;4.32;;;25.30;98.60;;;;;;5016333;28;20549;-84
2022/05/19 07:09:38;;;;;;;8.30;3.47;;;25.00;99.20;;;;;;5018816;28;20169;-86
2022/05/19 07:12:05;;;;;;;7.30;3.40;;;25.00;98.20;;;;;;5018968;28;20170;-86
2022/05/19 07:14:32;;;;;;;5.53;3.85;;;25.60;98.30;;;;;;5020144;28;20170;-83
2022/05/19 07:16:57;;;;;;;8.50;3.08;;;25.10;96.40;;;;;;5019857;28;20217;-83
2022/05/19 07:22:17;;;;;;;6.15;3.40;;;25.60;97.00;;;;;;5035841;28;20540;-84
2022/05/19 07:24:43;;;;;;;5.35;3.50;;;25.50;95.70;;;;;;5018082;28;20169;-83
2022/05/19 07:27:08;;;;;;;8.15;3.80;;;25.40;96.00;;;;;;5016749;28;20213;-84
2022/05/19 07:29:34;;;;;;;4.05;3.22;;;25.40;96.50;;;;;;5018539;28;20177;-85
2022/05/19 07:32:03;;;;;;;7.03;3.70;;;25.50;95.30;;;;;;5016271;28;20651;-83
2022/05/19 07:34:31;;;;;;;6.32;4.03;;;24.90;97.40;;;;;;5033931;28;20642;-83
2022/05/19 07:36:57;;;;;;;5.47;3.30;;;24.70;97.50;;;;;;5015742;28;20170;-83
2022/05/19 07:39:24;;;;;;;8.52;3.30;;;24.70;98.60;;;;;;5016387;28;20221;-84
2022/05/19 07:41:53;;;;;;;7.47;3.63;;;25.50;97.80;;;;;;5015474;28;20206;-84
2022/05/19 07:44:19;;;;;;;7.22;3.80;;;25.40;96.80;;;;;;5018463;28;20373;-85
2022/05/19 07:46:45;;;;;;;10.35;3.65;;;25.50;96.60;;;;;;5019052;28;20461;-84
2022/05/19 07:49:11;;;;;;;6.82;3.53;;;25.50;96.80;;;;;;5019818;28;20170;-83
2022/05/19 07:51:40;;;;;;;6.15;3.70;;;25.40;96.00;;;;;;5018207;28;20202;-84
2022/05/19 07:54:15;;;;;;;6.22;3.67;;;25.10;96.30;;;;;;5018493;28;20196;-83
2022/05/19 07:56:42;;;;;;;7.25;3.40;;;25.00;96.60;;;;;;5017125;28;20638;-85
2022/05/19 07:59:11;;;;;;;5.30;3.63;;;24.90;96.40;;;;;;5019940;28;20178;-83
2022/05/19 08:01:39;;;;;;;6.35;3.35;;;24.90;95.30;;;;;;5017152;28;20201;-81
2022/05/19 08:04:05;;;;;;;6.18;3.50;;;24.90;96.10;;;;;;5018497;28;20170;-84
2022/05/19 08:06:33;;;;;;;8.73;3.72;;;25.20;96.50;;;;;;5017511;28;20235;-83
2022/05/19 08:08:59;;;;;;;11.30;3.92;;;25.00;96.30;;;;;;5017895;28;20560;-84
2022/05/19 08:11:27;;;;;;;5.93;3.97;;;24.80;96.10;;;;;;5016562;28;20252;-85
2022/05/19 08:16:37;;;;;;;8.95;3.72;;;24.50;95.60;;;;;;5034835;28;20192;-88
2022/05/19 08:19:03;;;;;;;7.78;3.60;;;24.70;96.20;;;;;;5016457;28;20230;-87
2022/05/19 08:21:31;;;;;;;13.60;3.72;;;24.70;96.70;;;;;;5015291;28;20678;-83
2022/05/19 08:23:57;;;;;;;11.02;3.75;;;24.70;96.70;;;;;;5015337;28;20204;-86
2022/05/19 08:26:24;;;;;;;7.88;4.93;;;24.80;96.80;;;;;;5014542;28;20200;-84
2022/05/19 08:28:51;;;;;;;11.80;4.15;;;24.70;96.10;;;;;;5015139;28;20550;-85
2022/05/19 08:31:24;;;;;;;8.48;4.28;;;24.60;97.20;;;;;;5014594;28;20536;-82
2022/05/19 08:33:53;;;;;;;8.73;4.07;;;24.70;96.70;;;;;;5015366;28;20185;-85
2022/05/19 08:36:19;;;;;;;7.95;4.20;;;24.80;96.50;;;;;;5015726;28;20531;-84
2022/05/19 08:38:46;;;;;;;8.07;3.60;;;24.80;96.70;;;;;;5016366;28;20170;-84
2022/05/19 08:41:35;;;;;;;8.35;4.07;;;25.00;97.30;;;;;;5017608;28;20244;-84
2022/05/19 08:44:11;;;;;;;8.45;4.07;;;24.80;96.10;;;;;;5004516;28;20182;-85
2022/05/19 08:46:40;;;;;;;13.13;4.55;;;25.40;95.80;;;;;;5016524;28;20172;-84
2022/05/19 08:49:12;;;;;;;10.70;4.32;;;25.30;95.90;;;;;;5016319;28;20170;-83
2022/05/19 08:51:44;;;;;;;8.95;4.75;;;25.10;95.70;;;;;;5016371;28;20662;-85
2022/05/19 08:54:15;;;;;;;10.07;4.45;;;25.30;95.50;;;;;;5017388;28;20681;-86
2022/05/19 08:56:48;;;;;;;10.25;3.80;;;25.00;96.60;;;;;;5014816;28;20177;-86
2022/05/19 08:59:41;;;;;;;8.02;4.20;;;25.20;96.90;;;;;;5016883;28;20578;-83
2022/05/19 09:02:13;;;;;;;6.57;4.10;;;25.40;95.20;;;;;;5017170;28;20185;-84
2022/05/19 09:04:48;;;;;;;14.38;3.80;;;24.60;95.60;;;;;;5016915;28;20565;-85
2022/05/19 09:11:00;;;;;;;12.60;4.03;;;25.10;96.60;;;;;;5040158;28;20248;-84
2022/05/19 09:13:34;;;;;;;7.85;4.32;;;25.00;96.30;;;;;;4978712;28;20643;-84
2022/05/19 09:16:30;;;;;;;7.40;3.97;;;24.70;95.80;;;;;;5022153;28;20178;-84
2022/05/19 09:19:16;;;;;;;7.68;4.03;;;24.60;95.90;;;;;;5015494;28;20206;-85
2022/05/19 09:21:44;;;;;;;10.25;4.32;;;24.70;96.70;;;;;;5018203;28;20689;-85
2022/05/19 09:24:11;;;;;;;7.82;4.25;;;24.90;95.80;;;;;;5018483;28;20835;-86
2022/05/19 09:26:58;;;;;;;8.13;4.40;;;24.90;96.50;;;;;;5018074;28;20173;-85
2022/05/19 09:29:33;;;;;;;7.00;3.92;;;24.70;96.50;;;;;;5018136;28;20170;-85
2022/05/19 09:32:07;;;;;;;6.25;4.50;;;25.00;96.40;;;;;;5017724;28;20586;-85
2022/05/19 09:34:34;;;;;;;8.95;4.38;;;25.10;96.00;;;;;;5017532;28;20177;-85
2022/05/19 09:37:08;;;;;;;8.40;4.60;;;25.30;95.70;;;;;;5020037;28;20261;-84
2022/05/19 09:39:44;;;;;;;11.00;4.40;;;25.20;95.90;;;;;;5020535;28;20213;-83
2022/05/19 09:42:12;;;;;;;6.95;3.97;;;25.60;95.70;;;;;;5020686;28;20181;-83
2022/05/19 09:44:59;;;;;;;9.70;4.95;;;25.70;95.50;;;;;;5019072;28;20174;-82
2022/05/19 09:47:34;;;;;;;10.85;4.50;;;25.10;96.00;;;;;;5018819;28;20643;-84
2022/05/19 09:50:06;;;;;;;12.65;4.97;;;25.50;95.80;;;;;;5018176;28;20201;-83
2022/05/19 09:52:33;;;;;;;10.35;4.80;;;25.40;95.20;;;;;;5017614;28;20190;-81
2022/05/19 09:55:06;;;;;;;6.78;5.28;;;25.10;95.40;;;;;;5019856;28;20170;-84
2022/05/19 09:57:52;;;;;;;10.65;4.45;;;25.10;95.90;;;;;;5020716;28;20252;-84
2022/05/19 10:00:37;;;;;;;10.68;4.22;;;25.60;95.60;;;;;;5017135;28;20244;-85
2022/05/19 10:03:10;;;;;;;6.75;4.40;;;25.80;96.70;;;;;;5017383;28;20232;-84
2022/05/19 10:05:48;;;;;;;5.90;4.40;;;26.50;96.70;;;;;;5017882;28;20188;-83
2022/05/19 10:08:35;;;;;;;9.02;4.47;;;26.10;95.20;;;;;;5017143;28;20531;-84
2022/05/19 10:11:03;;;;;;;9.48;4.55;;;26.90;94.80;;;;;;5017473;28;20204;-83
2022/05/19 10:13:51;;;;;;;7.47;4.07;;;26.40;94.50;;;;;;5017707;28;20282;-85
2022/05/19 10:16:42;;;;;;;11.88;4.45;;;26.40;94.10;;;;;;5016470;28;20718;-85
2022/05/19 10:19:37;;;;;;;16.27;5.22;;;27.00;94.10;;;;;;5016375;28;20710;-83
2022/05/19 10:22:45;;;;;;;8.90;4.70;;;27.10;93.50;;;;;;5005912;28;20404;-81
2022/05/19 10:25:45;;;;;;;7.10;4.45;;;26.90;93.50;;;;;;5016551;28;20170;-83
2022/05/19 10:31:18;;;;;;;6.43;4.70;;;27.70;91.90;;;;;;5034808;28;20201;-82
2022/05/19 10:33:49;;;;;;;7.68;5.45;;;27.30;92.90;;;;;;5015966;28;20170;-83
2022/05/19 10:36:41;;;;;;;9.02;4.90;;;27.50;91.90;;;;;;5016751;28;20197;-81
2022/05/19 10:39:37;;;;;;;8.85;4.50;;;27.80;92.60;;;;;;5016019;28;20220;-83
2022/05/19 10:42:30;;;;;;;9.88;4.18;;;28.50;90.90;;;;;;5015209;28;20197;-85
2022/05/19 10:45:17;;;;;;;9.90;3.70;;;28.50;91.20;;;;;;4985657;28;20185;-86
2022/05/19 10:48:24;;;;;;;7.45;4.18;;;28.50;91.00;;;;;;5015922;28;20194;-81
2022/05/19 10:51:13;;;;;;;4.78;4.30;;;28.80;90.40;;;;;;5016962;28;20225;-85
2022/05/19 10:53:45;;;;;;;5.63;3.85;;;28.30;89.30;;;;;;5015399;28;20189;-86
2022/05/19 10:56:42;;;;;;;6.55;4.05;;;28.00;90.10;;;;;;5015369;28;20178;-87
2022/05/19 10:59:16;;;;;;;8.40;4.10;;;28.70;89.60;;;;;;4987004;28;20257;-84
2022/05/19 11:01:56;;;;;;;4.95;3.88;;;28.50;90.30;;;;;;5028292;28;20206;-83
2022/05/19 11:04:43;;;;;;;5.22;3.95;;;28.30;88.40;;;;;;5009179;28;20186;-83
2022/05/19 11:08:13;;;;;;;7.20;4.10;;;28.50;86.60;;;;;;4983666;28;20185;-84
2022/05/19 11:10:58;;;;;;;5.30;3.38;;;29.20;87.70;;;;;;4948480;28;20217;-82
2022/05/19 11:13:52;;;;;;;5.07;3.13;;;29.50;88.40;;;;;;4993472;28;20310;-82
2022/05/19 11:16:24;;;;;;;5.72;3.28;;;29.40;84.80;;;;;;4989434;28;20171;-83
2022/05/19 11:19:12;;;;;;;6.65;3.63;;;30.00;86.70;;;;;;4987442;28;20187;-83
2022/05/19 11:21:46;;;;;;;5.78;3.55;;;29.50;82.40;;;;;;5006847;28;20214;-83
2022/05/19 11:24:29;;;;;;;9.23;3.33;;;29.60;82.90;;;;;;4991067;28;20174;-84
2022/05/19 11:27:07;;;;;;;7.22;4.00;;;29.70;82.50;;;;;;4991914;28;20179;-84
2022/05/19 11:29:45;;;;;;;4.57;2.90;;;29.70;80.60;;;;;;4994209;28;20630;-82
2022/05/19 11:32:33;;;;;;;5.15;2.90;;;29.90;82.50;;;;;;4993160;28;20182;-87
2022/05/19 11:35:06;;;;;;;4.32;2.72;;;30.20;85.60;;;;;;4995950;28;20174;-84
2022/05/19 11:37:54;;;;;;;4.47;3.08;;;30.10;81.10;;;;;;4996990;28;20171;-84
2022/05/19 11:40:45;;;;;;;3.72;3.08;;;30.00;80.00;;;;;;4992400;28;20328;-81
2022/05/19 11:43:34;;;;;;;9.60;3.00;;;29.90;82.40;;;;;;4986782;28;20294;-86
2022/05/19 11:46:16;;;;;;;6.25;3.17;;;30.10;82.00;;;;;;4984574;28;20180;-83
2022/05/19 11:57:48;;;;;;;3.05;2.60;;;29.60;82.40;;;;;;4996675;28;20167;-87
2022/05/19 12:00:26;;;;;;;7.20;3.30;;;29.80;81.30;;;;;;4978264;28;20245;-86
2022/05/19 12:03:17;;;;;;;5.38;2.90;;;30.70;82.40;;;;;;4977322;28;20175;-84
2022/05/19 12:06:03;;;;;;;6.93;2.90;;;30.60;80.60;;;;;;4977321;28;20171;-84
2022/05/19 12:08:36;;;;;;;3.58;2.97;;;30.20;80.50;;;;;;4976953;28;20167;-86
2022/05/19 12:11:14;;;;;;;7.13;2.70;;;30.70;80.00;;;;;;4977541;28;20214;-85
2022/05/19 12:13:45;;;;;;;6.10;3.35;;;31.60;77.60;;;;;;4977875;28;20175;-84
2022/05/19 12:16:15;;;;;;;4.95;3.03;;;30.60;79.40;;;;;;4977590;28;20395;-85
2022/05/19 12:19:08;;;;;;;3.97;2.88;;;30.10;80.80;;;;;;4994838;28;20309;-87
2022/05/19 12:21:45;;;;;;;4.45;2.95;;;29.40;82.90;;;;;;4977220;28;20210;-85
2022/05/19 12:24:13;;;;;;;5.13;2.95;;;29.80;80.00;;;;;;4977022;28;20199;-84
2022/05/19 12:26:50;;;;;;;3.80;2.65;;;29.30;80.40;;;;;;4985130;28;20202;-85
2022/05/19 12:29:41;;;;;;;5.10;2.80;;;29.90;80.40;;;;;;4978597;28;20171;-82
2022/05/19 12:32:23;;;;;;;5.15;2.80;;;29.50;81.40;;;;;;4977501;28;20642;-84
2022/05/19 12:35:02;;;;;;;7.75;2.80;;;29.30;81.50;;;;;;4979388;28;20614;-85
2022/05/19 12:37:39;;;;;;;6.15;2.80;;;29.30;82.10;;;;;;4978978;28;20186;-86
2022/05/19 12:40:25;;;;;;;4.15;2.65;;;29.00;81.80;;;;;;4977464;28;20643;-84
2022/05/19 12:43:21;;;;;;;7.28;2.95;;;29.10;80.90;;;;;;4992687;28;20197;-87
2022/05/19 12:45:59;;;;;;;3.10;2.90;;;29.20;82.20;;;;;;4976313;28;20202;-87
2022/05/19 12:48:31;;;;;;;2.75;2.55;;;29.40;81.60;;;;;;4976155;28;20179;-84
2022/05/19 12:51:46;;;;;;;3.72;2.80;;;29.30;81.80;;;;;;4976998;28;20626;-87
2022/05/19 12:54:11;;;;;;;6.75;3.38;;;29.10;81.70;;;;;;4976103;28;20191;-85
2022/05/19 12:56:40;;;;;;;4.32;2.80;;;29.20;81.20;;;;;;4976218;28;20520;-85
2022/05/19 12:59:09;;;;;;;4.57;3.00;;;29.00;82.70;;;;;;4975590;28;20179;-86
2022/05/19 13:01:37;;;;;;;4.78;2.90;;;29.40;82.30;;;;;;4975587;28;20597;-86
2022/05/19 13:04:05;;;;;;;8.07;3.00;;;29.60;81.10;;;;;;4975736;28;20179;-86
2022/05/19 13:06:33;;;;;;;3.30;2.75;;;29.00;83.30;;;;;;4986083;28;20237;-84
2022/05/19 13:09:03;;;;;;;4.30;2.75;;;29.00;84.60;;;;;;5013107;28;20170;-85
2022/05/19 13:11:32;;;;;;;5.75;2.92;;;28.80;82.00;;;;;;4994820;28;20199;-86
2022/05/19 13:14:21;;;;;;;5.35;2.90;;;29.10;82.50;;;;;;4980666;28;20577;-85
2022/05/19 13:16:53;;;;;;;4.32;2.70;;;28.80;81.30;;;;;;4962713;28;20186;-86
2022/05/19 13:19:30;;;;;;;3.30;2.83;;;29.00;81.40;;;;;;4977017;28;20171;-87
2022/05/19 13:22:02;;;;;;;7.63;3.15;;;28.90;81.40;;;;;;4976058;28;20199;-86
2022/05/19 13:24:33;;;;;;;7.25;2.67;;;28.60;83.00;;;;;;4976319;28;20234;-86
2022/05/19 13:32:34;;;;;;;5.25;2.80;;;28.20;82.60;;;;;;5012230;28;20702;-84
2022/05/19 13:35:15;;;;;;;9.65;3.67;;;28.10;82.50;;;;;;4994889;28;20183;-87